createdAt,value
2018-09-16T00:01:49.777Z,101135.00
2018-09-16T00:04:20.713Z,101136.97
2018-09-16T00:06:51.488Z,101136.62
2018-09-16T00:09:22.808Z,101135.77
2018-09-16T00:11:53.581Z,101138.94
2018-09-16T00:14:24.890Z,101134.09
2018-09-16T00:16:55.655Z,101136.56
2018-09-16T00:19:26.580Z,101130.67
2018-09-16T00:21:57.454Z,101129.23
2018-09-16T00:24:28.954Z,101139.23
2018-09-16T00:26:59.647Z,101139.66
2018-09-16T00:29:31.175Z,101141.62
2018-09-16T00:32:05.882Z,101142.13
2018-09-16T00:34:35.781Z,101136.58
2018-09-16T00:37:10.273Z,101141.27
2018-09-16T00:39:40.217Z,101141.27
2018-09-16T00:42:10.456Z,101130.62
2018-09-16T00:44:40.249Z,101141.97
2018-09-16T00:47:10.196Z,101139.47
2018-09-16T00:49:40.076Z,101140.23
2018-09-16T00:52:10.566Z,101146.24
2018-09-16T00:54:40.288Z,101152.55
2018-09-16T00:57:10.826Z,101157.52
2018-09-16T00:59:41.712Z,101154.86
2018-09-16T01:02:11.708Z,101158.84
2018-09-16T01:04:42.646Z,101158.50
2018-09-16T01:07:13.474Z,101162.48
2018-09-16T01:09:44.826Z,101161.95
2018-09-16T01:12:15.573Z,101157.61
2018-09-16T01:14:47.516Z,101159.58
2018-09-16T01:17:17.415Z,101162.02
2018-09-16T01:19:49.343Z,101152.52
2018-09-16T01:22:20.233Z,101153.50
2018-09-16T01:24:50.718Z,101147.95
2018-09-16T01:27:21.824Z,101146.43
2018-09-16T01:29:52.594Z,101149.22
2018-09-16T01:32:23.491Z,101145.86
2018-09-16T01:34:54.700Z,101148.17
2018-09-16T01:37:30.512Z,101146.65
2018-09-16T01:40:00.358Z,101145.61
2018-09-16T01:42:30.343Z,101143.07
2018-09-16T01:45:00.347Z,101147.69
2018-09-16T01:47:30.328Z,101153.64
2018-09-16T01:50:00.832Z,101149.30
2018-09-16T01:52:31.586Z,101146.10
2018-09-16T01:55:02.899Z,101147.91
2018-09-16T01:57:33.729Z,101140.56
2018-09-16T02:00:04.932Z,101142.87
2018-09-16T02:02:35.865Z,101138.46
2018-09-16T02:05:06.859Z,101134.12
2018-09-16T02:07:38.032Z,101135.95
2018-09-16T02:10:18.542Z,101140.92
2018-09-16T02:12:49.164Z,101138.05
2018-09-16T02:15:20.254Z,101138.05
2018-09-16T02:17:50.996Z,101133.52
2018-09-16T02:20:21.374Z,101135.82
2018-09-16T02:22:51.220Z,101135.94
2018-09-16T02:25:21.042Z,101137.43
2018-09-16T02:27:51.626Z,101139.38
2018-09-16T02:30:21.494Z,101142.52
2018-09-16T02:32:51.329Z,101142.13
2018-09-16T02:35:21.792Z,101143.62
2018-09-16T02:37:51.665Z,101150.73
2018-09-16T02:40:21.652Z,101159.33
2018-09-16T02:42:51.525Z,101153.31
2018-09-16T02:45:23.266Z,101155.27
2018-09-16T02:47:53.916Z,101154.80
2018-09-16T02:50:24.798Z,101153.95
2018-09-16T02:52:56.033Z,101159.26
2018-09-16T02:55:26.686Z,101153.75
2018-09-16T02:57:59.146Z,101150.23
2018-09-16T03:00:28.930Z,101153.40
2018-09-16T03:02:59.821Z,101147.23
2018-09-16T03:05:35.432Z,101147.73
2018-09-16T03:08:05.453Z,101151.21
2018-09-16T03:10:35.314Z,101152.70
2018-09-16T03:13:05.317Z,101149.53
2018-09-16T03:15:35.149Z,101153.80
2018-09-16T03:18:05.676Z,101157.43
2018-09-16T03:20:36.534Z,101157.91
2018-09-16T03:23:07.385Z,101156.22
2018-09-16T03:25:39.061Z,101154.70
2018-09-16T03:28:09.774Z,101149.31
2018-09-16T03:30:40.921Z,101158.45
2018-09-16T03:33:11.690Z,101158.10
2018-09-16T03:35:42.534Z,101159.58
2018-09-16T03:38:14.103Z,101164.39
2018-09-16T03:40:44.969Z,101154.66
2018-09-16T03:43:15.799Z,101160.68
2018-09-16T03:45:46.690Z,101155.87
2018-09-16T03:48:17.509Z,101162.36
2018-09-16T03:50:48.624Z,101156.70
2018-09-16T03:53:19.573Z,101157.83
2018-09-16T03:55:50.495Z,101159.98
2018-09-16T03:58:21.357Z,101164.31
2018-09-16T04:00:52.753Z,101158.09
2018-09-16T04:03:23.481Z,101161.73
2018-09-16T04:05:54.890Z,101161.38
2018-09-16T04:08:25.686Z,101165.84
2018-09-16T04:10:56.603Z,101169.34
2018-09-16T04:13:27.400Z,101178.30
2018-09-16T04:15:58.962Z,101179.11
2018-09-16T04:18:29.677Z,101181.30
2018-09-16T04:21:00.604Z,101185.41
2018-09-16T04:23:43.838Z,101181.58
2018-09-16T04:26:14.398Z,101177.70
2018-09-16T04:28:44.558Z,101178.69
2018-09-16T04:31:15.717Z,101187.16
2018-09-16T04:33:45.523Z,101187.62
2018-09-16T04:36:15.284Z,101192.12
2018-09-16T04:38:45.116Z,101192.73
2018-09-16T04:41:15.757Z,101182.03
2018-09-16T04:43:45.585Z,101193.20
2018-09-16T04:46:15.469Z,101191.41
2018-09-16T04:48:45.352Z,101189.11
2018-09-16T04:51:15.213Z,101193.44
2018-09-16T04:53:45.473Z,101196.09
2018-09-16T04:56:15.389Z,101191.14
2018-09-16T04:58:46.186Z,101189.81
2018-09-16T05:01:16.898Z,101183.29
2018-09-16T05:03:47.589Z,101195.23
2018-09-16T05:06:18.590Z,101192.47
2018-09-16T05:08:49.453Z,101205.75
2018-09-16T05:11:20.776Z,101200.08
2018-09-16T05:13:51.621Z,101202.73
2018-09-16T05:16:22.479Z,101208.41
2018-09-16T05:18:53.663Z,101217.08
2018-09-16T05:21:25.012Z,101214.77
2018-09-16T05:23:55.801Z,101219.46
2018-09-16T05:26:26.626Z,101227.16
2018-09-16T05:28:57.608Z,101225.56
2018-09-16T05:31:28.330Z,101222.64
2018-09-16T05:33:58.343Z,101223.70
2018-09-16T05:36:29.795Z,101220.77
2018-09-16T05:39:00.516Z,101219.02
2018-09-16T05:41:31.966Z,101219.24
2018-09-16T05:44:03.039Z,101227.09
2018-09-16T05:46:33.747Z,101222.48
2018-09-16T05:49:04.782Z,101231.71
2018-09-16T05:51:35.659Z,101234.95
2018-09-16T05:54:06.433Z,101237.57
2018-09-16T05:56:37.823Z,101236.31
2018-09-16T05:59:09.503Z,101243.27
2018-09-16T06:01:39.594Z,101242.84
2018-09-16T06:04:10.441Z,101244.95
2018-09-16T06:06:41.966Z,101254.63
2018-09-16T06:09:14.426Z,101249.51
2018-09-16T06:11:44.442Z,101247.90
2018-09-16T06:14:14.683Z,101254.97
2018-09-16T06:16:46.119Z,101243.86
2018-09-16T06:19:16.668Z,101251.13
2018-09-16T06:21:48.676Z,101244.75
2018-09-16T06:24:18.846Z,101255.60
2018-09-16T06:26:49.731Z,101256.65
2018-09-16T06:29:20.565Z,101262.39
2018-09-16T06:31:51.312Z,101264.17
2018-09-16T06:34:21.789Z,101263.38
2018-09-16T06:36:52.683Z,101266.45
2018-09-16T06:39:23.462Z,101261.97
2018-09-16T06:41:54.987Z,101266.09
2018-09-16T06:44:25.850Z,101262.03
2018-09-16T06:46:56.745Z,101263.67
2018-09-16T06:49:27.497Z,101264.39
2018-09-16T06:51:58.618Z,101267.64
2018-09-16T06:54:29.427Z,101265.72
2018-09-16T06:57:00.842Z,101275.27
2018-09-16T06:59:31.641Z,101272.62
2018-09-16T07:02:02.624Z,101273.05
2018-09-16T07:04:33.491Z,101272.84
2018-09-16T07:07:04.553Z,101277.40
2018-09-16T07:09:35.712Z,101281.84
2018-09-16T07:12:06.646Z,101274.36
2018-09-16T07:14:38.044Z,101280.59
2018-09-16T07:17:08.983Z,101277.14
2018-09-16T07:19:39.650Z,101280.61
2018-09-16T07:22:10.709Z,101281.89
2018-09-16T07:24:41.465Z,101286.83
2018-09-16T07:27:12.762Z,101288.69
2018-09-16T07:29:43.721Z,101285.61
2018-09-16T07:32:14.610Z,101286.27
2018-09-16T07:34:46.196Z,101291.24
2018-09-16T07:37:16.823Z,101293.82
2018-09-16T07:39:46.584Z,101288.83
2018-09-16T07:42:17.517Z,101287.59
2018-09-16T07:44:48.749Z,101289.64
2018-09-16T07:47:19.781Z,101288.80
2018-09-16T07:49:50.510Z,101296.02
2018-09-16T07:52:21.777Z,101292.33
2018-09-16T07:54:52.441Z,101298.68
2018-09-16T07:57:23.864Z,101301.21
2018-09-16T07:59:54.970Z,101294.98
2018-09-16T08:02:25.745Z,101298.02
2018-09-16T08:04:56.626Z,101308.70
2018-09-16T08:07:27.500Z,101307.00
2018-09-16T08:09:58.305Z,101295.53
2018-09-16T08:12:29.785Z,101302.92
2018-09-16T08:15:00.557Z,101295.92
2018-09-16T08:17:31.592Z,101297.94
2018-09-16T08:20:02.393Z,101290.22
2018-09-16T08:22:39.252Z,101291.53
2018-09-16T08:25:09.590Z,101292.28
2018-09-16T08:27:39.574Z,101293.37
2018-09-16T08:30:09.564Z,101294.86
2018-09-16T08:32:39.328Z,101292.03
2018-09-16T08:35:09.282Z,101285.57
2018-09-16T08:37:39.775Z,101288.06
2018-09-16T08:40:09.607Z,101292.19
2018-09-16T08:42:40.389Z,101290.56
2018-09-16T08:45:11.782Z,101285.39
2018-09-16T08:47:42.677Z,101293.30
2018-09-16T08:50:13.641Z,101286.45
2018-09-16T08:52:44.612Z,101286.69
2018-09-16T08:55:15.405Z,101290.11
2018-09-16T08:57:46.738Z,101282.42
2018-09-16T09:00:17.778Z,101285.33
2018-09-16T09:02:48.528Z,101287.17
2018-09-16T09:05:19.473Z,101281.56
2018-09-16T09:07:50.152Z,101275.53
2018-09-16T09:10:20.669Z,101273.87
2018-09-16T09:12:51.379Z,101282.05
2018-09-16T09:15:23.168Z,101272.62
2018-09-16T09:17:53.655Z,101266.23
2018-09-16T09:20:24.448Z,101268.90
2018-09-16T09:22:55.511Z,101265.32
2018-09-16T09:25:26.398Z,101267.70
2018-09-16T09:27:57.793Z,101264.94
2018-09-16T09:30:28.700Z,101268.09
2018-09-16T09:32:59.570Z,101264.59
2018-09-16T09:35:30.384Z,101262.73
2018-09-16T09:38:01.929Z,101261.81
2018-09-16T09:40:32.615Z,101259.00
2018-09-16T09:43:03.837Z,101257.56
2018-09-16T09:45:34.526Z,101245.36
2018-09-16T09:48:05.473Z,101247.58
2018-09-16T09:50:36.775Z,101245.16
2018-09-16T09:53:07.961Z,101248.28
2018-09-16T09:55:38.732Z,101246.37
2018-09-16T09:58:09.624Z,101242.39
2018-09-16T10:00:45.822Z,101239.98
2018-09-16T10:03:15.730Z,101243.08
2018-09-16T10:05:45.893Z,101240.48
2018-09-16T10:08:16.060Z,101242.56
2018-09-16T10:10:46.610Z,101235.16
2018-09-16T10:13:16.433Z,101236.53
2018-09-16T10:15:46.453Z,101241.55
2018-09-16T10:18:18.082Z,101243.80
2018-09-16T10:20:48.687Z,101238.52
2018-09-16T10:23:19.544Z,101244.72
2018-09-16T10:25:50.498Z,101241.78
2018-09-16T10:28:20.357Z,101232.24
2018-09-16T10:30:51.796Z,101231.91
2018-09-16T10:33:22.871Z,101229.33
2018-09-16T10:35:54.004Z,101225.74
2018-09-16T10:38:25.101Z,101215.86
2018-09-16T10:40:55.896Z,101210.34
2018-09-16T10:43:27.135Z,101216.38
2018-09-16T10:45:57.808Z,101220.07
2018-09-16T10:48:28.782Z,101224.34
2018-09-16T10:50:59.702Z,101219.87
2018-09-16T10:53:30.547Z,101220.81
2018-09-16T10:56:01.620Z,101223.00
2018-09-16T10:58:33.110Z,101217.06
2018-09-16T11:01:03.814Z,101214.84
2018-09-16T11:03:35.215Z,101212.73
2018-09-16T11:06:05.837Z,101209.48
2018-09-16T11:08:36.702Z,101210.45
2018-09-16T11:11:08.245Z,101203.88
2018-09-16T11:13:38.741Z,101210.72
2018-09-16T11:16:18.859Z,101203.59
2018-09-16T11:18:48.757Z,101197.68
2018-09-16T11:21:19.340Z,101186.59
2018-09-16T11:23:49.243Z,101197.46
2018-09-16T11:26:19.131Z,101188.30
2018-09-16T11:28:49.475Z,101189.05
2018-09-16T11:31:19.574Z,101190.97
2018-09-16T11:33:49.537Z,101185.77
2018-09-16T11:36:19.319Z,101183.67
2018-09-16T11:38:50.188Z,101177.73
2018-09-16T11:41:20.596Z,101178.36
2018-09-16T11:43:50.418Z,101178.97
2018-09-16T11:46:20.366Z,101175.83
2018-09-16T11:48:51.773Z,101169.98
2018-09-16T11:51:22.869Z,101171.15
2018-09-16T11:53:53.725Z,101171.78
2018-09-16T11:56:24.626Z,101146.95
2018-09-16T11:58:56.890Z,101150.11
2018-09-16T12:01:26.792Z,101149.55
2018-09-16T12:03:57.617Z,101159.34
2018-09-16T12:06:28.414Z,101138.87
2018-09-16T12:08:59.859Z,101144.02
2018-09-16T12:11:30.616Z,101140.20
2018-09-16T12:14:01.500Z,101129.58
2018-09-16T12:16:32.385Z,101126.99
2018-09-16T12:19:03.779Z,101124.87
2018-09-16T12:21:34.663Z,101126.66
2018-09-16T12:24:05.506Z,101129.63
2018-09-16T12:26:36.466Z,101131.88
2018-09-16T12:29:08.093Z,101125.72
2018-09-16T12:31:37.978Z,101117.47
2018-09-16T12:34:08.714Z,101121.42
2018-09-16T12:36:39.464Z,101122.48
2018-09-16T12:39:13.127Z,101125.97
2018-09-16T12:41:43.948Z,101123.48
2018-09-16T12:44:14.433Z,101117.83
2018-09-16T12:46:44.226Z,101109.37
2018-09-16T12:49:15.085Z,101112.66
2018-09-16T12:51:46.021Z,101108.92
2018-09-16T12:54:16.646Z,101104.64
2018-09-16T12:56:47.882Z,101093.94
2018-09-16T12:59:18.662Z,101099.16
2018-09-16T13:01:49.745Z,101096.25
2018-09-16T13:04:20.549Z,101092.11
2018-09-16T13:07:02.111Z,101088.11
2018-09-16T13:09:32.609Z,101092.70
2018-09-16T13:12:02.447Z,101076.45
2018-09-16T13:14:32.341Z,101082.56
2018-09-16T13:17:02.227Z,101081.12
2018-09-16T13:19:32.228Z,101080.22
2018-09-16T13:22:01.996Z,101080.15
2018-09-16T13:24:32.521Z,101078.27
2018-09-16T13:27:02.313Z,101072.78
2018-09-16T13:29:32.264Z,101076.06
2018-09-16T13:32:13.713Z,101072.16
2018-09-16T13:34:44.728Z,101062.94
2018-09-16T13:37:14.913Z,101054.05
2018-09-16T13:39:44.752Z,101055.02
2018-09-16T13:42:14.913Z,101051.46
2018-09-16T13:44:45.518Z,101044.81
2018-09-16T13:47:15.538Z,101046.69
2018-09-16T13:49:45.654Z,101041.23
2018-09-16T13:52:15.554Z,101039.39
2018-09-16T13:54:45.718Z,101032.92
2018-09-16T13:57:16.469Z,101032.38
2018-09-16T13:59:46.314Z,101032.04
2018-09-16T14:02:16.309Z,101031.31
2018-09-16T14:04:46.482Z,101031.17
2018-09-16T14:07:16.333Z,101033.55
2018-09-16T14:09:46.421Z,101028.09
2018-09-16T14:12:16.340Z,101030.00
2018-09-16T14:14:48.024Z,101026.50
2018-09-16T14:17:18.583Z,101020.61
2018-09-16T14:19:49.515Z,101018.98
2018-09-16T14:22:20.646Z,101018.59
2018-09-16T14:24:51.631Z,101016.92
2018-09-16T14:27:22.884Z,101022.55
2018-09-16T14:29:53.996Z,101017.17
2018-09-16T14:32:24.876Z,101009.49
2018-09-16T14:34:55.683Z,101013.89
2018-09-16T14:37:26.662Z,101001.83
2018-09-16T14:39:57.376Z,100998.10
2018-09-16T14:42:28.893Z,100995.22
2018-09-16T14:44:59.657Z,100995.50
2018-09-16T14:47:30.543Z,100992.97
2018-09-16T14:50:01.444Z,100996.09
2018-09-16T14:52:32.423Z,100996.89
2018-09-16T14:55:03.665Z,101002.05
2018-09-16T14:57:34.666Z,101001.59
2018-09-16T15:00:05.489Z,101002.42
2018-09-16T15:02:36.918Z,100994.42
2018-09-16T15:05:07.881Z,100996.92
2018-09-16T15:07:38.652Z,100994.48
2018-09-16T15:10:09.725Z,100988.30
2018-09-16T15:12:40.718Z,100984.83
2018-09-16T15:15:10.602Z,100987.55
2018-09-16T15:17:41.297Z,100981.40
2018-09-16T15:20:13.092Z,100974.60
2018-09-16T15:22:43.502Z,100972.28
2018-09-16T15:25:14.405Z,100972.08
2018-09-16T15:27:46.169Z,100965.53
2018-09-16T15:30:16.971Z,100964.94
2018-09-16T15:32:47.671Z,100965.55
2018-09-16T15:35:18.408Z,100967.14
2018-09-16T15:37:49.769Z,100959.45
2018-09-16T15:40:21.273Z,100961.20
2018-09-16T15:42:51.761Z,100959.45
2018-09-16T15:45:22.688Z,100964.52
2018-09-16T15:47:54.739Z,100960.22
2018-09-16T15:50:24.737Z,100965.57
2018-09-16T15:52:55.422Z,100957.64
2018-09-16T15:55:26.921Z,100957.94
2018-09-16T15:57:57.705Z,100949.73
2018-09-16T16:00:28.639Z,100950.42
2018-09-16T16:02:59.423Z,100952.37
2018-09-16T16:05:30.799Z,100946.13
2018-09-16T16:08:01.579Z,100939.45
2018-09-16T16:10:32.747Z,100942.24
2018-09-16T16:13:03.735Z,100947.31
2018-09-16T16:15:34.741Z,100947.34
2018-09-16T16:18:05.512Z,100939.58
2018-09-16T16:20:37.975Z,100942.73
2018-09-16T16:23:07.815Z,100941.63
2018-09-16T16:25:39.060Z,100934.55
2018-09-16T16:28:09.661Z,100935.05
2018-09-16T16:30:40.688Z,100939.94
2018-09-16T16:33:11.568Z,100946.41
2018-09-16T16:35:42.705Z,100940.16
2018-09-16T16:38:13.932Z,100935.50
2018-09-16T16:40:44.997Z,100938.78
2018-09-16T16:43:15.629Z,100936.05
2018-09-16T16:45:47.009Z,100939.92
2018-09-16T16:48:17.801Z,100939.48
2018-09-16T16:50:48.814Z,100936.13
2018-09-16T16:53:19.602Z,100947.73
2018-09-16T16:55:50.553Z,100948.20
2018-09-16T16:58:21.488Z,100938.37
2018-09-16T17:00:52.601Z,100941.45
2018-09-16T17:03:23.913Z,100938.31
2018-09-16T17:05:54.724Z,100937.20
2018-09-16T17:08:25.504Z,100943.78
2018-09-16T17:10:56.675Z,100942.61
2018-09-16T17:13:31.181Z,100945.86
2018-09-16T17:16:01.819Z,100941.96
2018-09-16T17:18:31.669Z,100934.32
2018-09-16T17:21:01.748Z,100943.28
2018-09-16T17:23:31.803Z,100944.03
2018-09-16T17:26:03.291Z,100943.72
2018-09-16T17:28:34.091Z,100941.00
2018-09-16T17:31:04.745Z,100947.55
2018-09-16T17:33:35.746Z,100951.92
2018-09-16T17:36:07.416Z,100954.83
2018-09-16T17:38:37.933Z,100952.85
2018-09-16T17:41:08.646Z,100957.08
2018-09-16T17:43:39.510Z,100952.63
2018-09-16T17:46:10.763Z,100954.45
2018-09-16T17:48:41.656Z,100957.77
2018-09-16T17:51:12.709Z,100952.73
2018-09-16T17:53:43.545Z,100959.59
2018-09-16T17:56:14.989Z,100954.51
2018-09-16T17:58:45.664Z,100965.75
2018-09-16T18:01:16.707Z,100967.27
2018-09-16T18:03:47.813Z,100971.49
2018-09-16T18:06:18.812Z,100971.64
2018-09-16T18:08:49.760Z,100972.64
2018-09-16T18:11:21.551Z,100969.14
2018-09-16T18:13:51.516Z,100973.50
2018-09-16T18:16:22.740Z,100967.09
2018-09-16T18:18:53.699Z,100973.31
2018-09-16T18:21:24.910Z,100974.79
2018-09-16T18:24:01.761Z,100977.93
2018-09-16T18:26:31.688Z,100975.11
2018-09-16T18:29:01.468Z,100975.50
2018-09-16T18:31:32.416Z,100977.33
2018-09-16T18:34:02.306Z,100973.15
2018-09-16T18:36:32.386Z,100972.92
2018-09-16T18:39:02.912Z,100974.34
2018-09-16T18:41:32.787Z,100976.66
2018-09-16T18:44:03.365Z,100974.72
2018-09-16T18:46:34.073Z,100972.52
2018-09-16T18:49:05.117Z,100971.63
2018-09-16T18:51:36.665Z,100971.34
2018-09-16T18:54:06.549Z,100980.91
2018-09-16T18:56:38.133Z,100976.84
2018-09-16T18:59:08.837Z,100981.06
2018-09-16T19:01:39.970Z,100965.12
2018-09-16T19:04:10.804Z,100978.47
2018-09-16T19:06:41.727Z,100974.61
2018-09-16T19:09:12.829Z,100979.98
2018-09-16T19:11:43.878Z,100977.50
2018-09-16T19:14:15.780Z,100977.86
2018-09-16T19:16:45.966Z,100978.92
2018-09-16T19:19:16.739Z,100977.10
2018-09-16T19:21:47.712Z,100984.38
2018-09-16T19:24:18.814Z,100981.05
2018-09-16T19:26:50.079Z,100978.77
2018-09-16T19:29:21.400Z,100981.98
2018-09-16T19:31:51.623Z,100982.22
2018-09-16T19:34:22.271Z,100984.29
2018-09-16T19:36:53.550Z,100990.51
2018-09-16T19:39:23.321Z,100988.38
2018-09-16T19:41:55.300Z,100989.44
2018-09-16T19:44:25.953Z,100990.12
2018-09-16T19:46:56.780Z,100984.66
2018-09-16T19:49:27.888Z,100986.36
2018-09-16T19:51:58.897Z,100976.84
2018-09-16T19:54:29.741Z,100972.84
2018-09-16T19:57:01.439Z,100976.08
2018-09-16T19:59:31.834Z,100971.76
2018-09-16T20:02:03.376Z,100975.15
2018-09-16T20:04:34.009Z,100974.66
2018-09-16T20:07:04.804Z,100974.65
2018-09-16T20:09:35.856Z,100976.37
2018-09-16T20:12:07.194Z,100976.73
2018-09-16T20:14:38.311Z,100975.27
2018-09-16T20:17:12.123Z,100973.11
2018-09-16T20:19:42.513Z,100968.30
2018-09-16T20:22:12.561Z,100966.13
2018-09-16T20:24:42.538Z,100967.48
2018-09-16T20:27:12.517Z,100972.86
2018-09-16T20:29:43.992Z,100975.23
2018-09-16T20:32:15.364Z,100972.57
2018-09-16T20:34:46.163Z,100960.55
2018-09-16T20:37:16.864Z,100964.24
2018-09-16T20:39:47.800Z,100960.73
2018-09-16T20:42:18.583Z,100964.10
2018-09-16T20:44:49.781Z,100968.98
2018-09-16T20:47:21.569Z,100962.31
2018-09-16T20:49:51.429Z,100970.02
2018-09-16T20:52:22.914Z,100963.83
2018-09-16T20:54:53.923Z,100969.39
2018-09-16T20:57:25.015Z,100959.33
2018-09-16T20:59:55.993Z,100967.70
2018-09-16T21:02:26.729Z,100964.70
2018-09-16T21:04:57.753Z,100962.37
2018-09-16T21:07:28.854Z,100969.08
2018-09-16T21:10:00.287Z,100963.06
2018-09-16T21:12:31.488Z,100963.89
2018-09-16T21:15:01.565Z,100963.56
2018-09-16T21:17:32.597Z,100956.37
2018-09-16T21:20:03.636Z,100958.72
2018-09-16T21:22:34.805Z,100964.07
2018-09-16T21:25:06.196Z,100966.27
2018-09-16T21:27:36.671Z,100961.07
2018-09-16T21:30:07.666Z,100954.39
2018-09-16T21:32:38.654Z,100958.25
2018-09-16T21:35:09.761Z,100957.40
2018-09-16T21:37:40.564Z,100951.72
2018-09-16T21:40:11.925Z,100961.08
2018-09-16T21:42:42.748Z,100963.59
2018-09-16T21:45:13.629Z,100967.09
2018-09-16T21:47:44.383Z,100965.27
2018-09-16T21:50:15.718Z,100963.75
2018-09-16T21:52:46.667Z,100968.09
2018-09-16T21:55:17.457Z,100969.61
2018-09-16T21:57:48.728Z,100963.27
2018-09-16T22:00:20.097Z,100962.73
2018-09-16T22:02:50.669Z,100963.55
2018-09-16T22:05:21.437Z,100955.87
2018-09-16T22:07:53.035Z,100954.86
2018-09-16T22:10:23.658Z,100952.86
2018-09-16T22:12:54.445Z,100956.02
2018-09-16T22:15:25.721Z,100960.02
2018-09-16T22:17:56.465Z,100959.86
2018-09-16T22:20:27.881Z,100960.00
2018-09-16T22:22:58.763Z,100954.13
2018-09-16T22:25:29.597Z,100953.30
2018-09-16T22:28:00.341Z,100958.64
2018-09-16T22:30:31.828Z,100949.28
2018-09-16T22:33:02.784Z,100945.94
2018-09-16T22:35:33.573Z,100951.27
2018-09-16T22:38:04.824Z,100950.26
2018-09-16T22:40:35.660Z,100950.07
2018-09-16T22:43:08.141Z,100952.58
2018-09-16T22:45:38.054Z,100949.90
2018-09-16T22:48:08.627Z,100948.03
2018-09-16T22:50:39.592Z,100948.70
2018-09-16T22:53:10.857Z,100942.02
2018-09-16T22:55:41.697Z,100935.10
2018-09-16T22:58:12.421Z,100930.40
2018-09-16T23:00:43.793Z,100937.41
2018-09-16T23:03:14.542Z,100938.28
2018-09-16T23:05:45.361Z,100938.78
2018-09-16T23:08:15.867Z,100935.78
2018-09-16T23:10:46.640Z,100940.97
2018-09-16T23:13:17.579Z,100936.47
2018-09-16T23:15:48.464Z,100936.16
2018-09-16T23:18:19.753Z,100930.42
2018-09-16T23:20:52.176Z,100934.30
2018-09-16T23:23:22.397Z,100926.41
2018-09-16T23:25:52.733Z,100923.84
2018-09-16T23:28:23.568Z,100919.38
2018-09-16T23:30:55.033Z,100922.98
2018-09-16T23:33:25.825Z,100922.86
2018-09-16T23:35:56.578Z,100912.72
2018-09-16T23:38:27.724Z,100912.68
2018-09-16T23:40:58.818Z,100915.22
2018-09-16T23:43:29.565Z,100911.14
2018-09-16T23:46:00.386Z,100918.44
2018-09-16T23:48:31.817Z,100908.78
2018-09-16T23:51:02.592Z,100912.05
2018-09-16T23:53:33.500Z,100901.65
2018-09-16T23:56:04.734Z,100908.30
2018-09-16T23:58:35.633Z,100900.96
